sensor_id;sensor_type;location;lat;lon;timestamp;temperature;humidity
9497;DHT22;4786;51.270;4.456;2024-01-15T00:02:01;4.00;99.90
9497;DHT22;4786;51.270;4.456;2024-01-15T00:04:27;3.90;99.90
9497;DHT22;4786;51.270;4.456;2024-01-15T00:06:54;3.90;99.90
9497;DHT22;4786;51.270;4.456;2024-01-15T00:09:20;3.90;99.90
9497;DHT22;4786;51.270;4.456;2024-01-15T00:11:46;3.80;99.90
9497;DHT22;4786;51.270;4.456;2024-01-15T00:14:12;3.70;99.90
9497;DHT22;4786;51.270;4.456;2024-01-15T00:16:40;3.70;99.90
9497;DHT22;4786;51.270;4.456;2024-01-15T00:19:06;3.60;99.90
9497;DHT22;4786;51.270;4.456;2024-01-15T00:21:32;3.70;99.90
9497;DHT22;4786;51.270;4.456;2024-01-15T00:23:58;3.50;99.90
9497;DHT22;4786;51.270;4.456;2024-01-15T00:26:24;3.60;99.90
9497;DHT22;4786;51.270;4.456;2024-01-15T00:28:50;3.50;99.90
9497;DHT22;4786;51.270;4.456;2024-01-15T00:31:17;3.50;99.90
9497;DHT22;4786;51.270;4.456;2024-01-15T00:33:43;3.50;99.90
9497;DHT22;4786;51.270;4.456;2024-01-15T00:36:09;3.60;99.90
9497;DHT22;4786;51.270;4.456;2024-01-15T00:38:35;3.70;99.90
9497;DHT22;4786;51.270;4.456;2024-01-15T00:41:01;3.70;99.90
9497;DHT22;4786;51.270;4.456;2024-01-15T00:43:28;3.60;99.90
9497;DHT22;4786;51.270;4.456;2024-01-15T00:45:54;3.70;99.90
9497;DHT22;4786;51.270;4.456;2024-01-15T00:48:20;3.70;99.90
9497;DHT22;4786;51.270;4.456;2024-01-15T00:50:46;3.70;99.90
9497;DHT22;4786;51.270;4.456;2024-01-15T00:53:11;3.60;99.90
9497;DHT22;4786;51.270;4.456;2024-01-15T00:55:38;3.60;99.90
9497;DHT22;4786;51.270;4.456;2024-01-15T00:58:03;3.70;99.90
9497;DHT22;4786;51.270;4.456;2024-01-15T01:00:30;3.50;99.90
9497;DHT22;4786;51.270;4.456;2024-01-15T01:02:55;3.70;99.90
9497;DHT22;4786;51.270;4.456;2024-01-15T01:05:22;3.70;99.90
9497;DHT22;4786;51.270;4.456;2024-01-15T01:07:48;3.70;99.90
9497;DHT22;4786;51.270;4.456;2024-01-15T01:10:14;3.60;99.90
9497;DHT22;4786;51.270;4.456;2024-01-15T01:12:40;3.60;99.90
9497;DHT22;4786;51.270;4.456;2024-01-15T01:15:05;3.50;99.90
9497;DHT22;4786;51.270;4.456;2024-01-15T01:17:32;3.50;99.90
9497;DHT22;4786;51.270;4.456;2024-01-15T01:19:58;3.80;99.90
9497;DHT22;4786;51.270;4.456;2024-01-15T01:22:23;3.60;99.90
9497;DHT22;4786;51.270;4.456;2024-01-15T01:24:50;3.60;99.90
9497;DHT22;4786;51.270;4.456;2024-01-15T01:27:15;3.60;99.90
9497;DHT22;4786;51.270;4.456;2024-01-15T01:29:41;3.60;99.90
9497;DHT22;4786;51.270;4.456;2024-01-15T01:32:07;3.80;99.90
9497;DHT22;4786;51.270;4.456;2024-01-15T01:34:39;3.60;99.90
9497;DHT22;4786;51.270;4.456;2024-01-15T01:37:05;3.50;99.90
9497;DHT22;4786;51.270;4.456;2024-01-15T01:39:31;3.70;99.90
9497;DHT22;4786;51.270;4.456;2024-01-15T01:41:57;3.50;99.90
9497;DHT22;4786;51.270;4.456;2024-01-15T01:44:23;3.60;99.90
9497;DHT22;4786;51.270;4.456;2024-01-15T01:46:49;3.50;99.90
9497;DHT22;4786;51.270;4.456;2024-01-15T01:49:15;3.60;99.90
9497;DHT22;4786;51.270;4.456;2024-01-15T01:51:41;3.60;99.90
9497;DHT22;4786;51.270;4.456;2024-01-15T01:54:08;3.60;99.90
9497;DHT22;4786;51.270;4.456;2024-01-15T01:56:35;3.50;99.90
9497;DHT22;4786;51.270;4.456;2024-01-15T01:59:02;3.60;99.90
9497;DHT22;4786;51.270;4.456;2024-01-15T02:01:31;3.60;99.90
9497;DHT22;4786;51.270;4.456;2024-01-15T02:03:57;3.60;99.90
9497;DHT22;4786;51.270;4.456;2024-01-15T02:06:24;3.60;99.90
9497;DHT22;4786;51.270;4.456;2024-01-15T02:08:50;3.70;99.90
9497;DHT22;4786;51.270;4.456;2024-01-15T02:11:16;3.60;99.90
9497;DHT22;4786;51.270;4.456;2024-01-15T02:13:42;3.50;99.90
9497;DHT22;4786;51.270;4.456;2024-01-15T02:16:08;3.50;99.90
9497;DHT22;4786;51.270;4.456;2024-01-15T02:18:43;3.60;99.90
9497;DHT22;4786;51.270;4.456;2024-01-15T02:21:10;3.50;99.90
9497;DHT22;4786;51.270;4.456;2024-01-15T02:23:36;3.50;99.90
9497;DHT22;4786;51.270;4.456;2024-01-15T02:26:03;3.50;99.90
9497;DHT22;4786;51.270;4.456;2024-01-15T02:28:30;3.60;99.90
9497;DHT22;4786;51.270;4.456;2024-01-15T02:30:56;3.50;99.90
9497;DHT22;4786;51.270;4.456;2024-01-15T02:33:22;3.50;99.90
9497;DHT22;4786;51.270;4.456;2024-01-15T02:35:48;3.50;99.90
9497;DHT22;4786;51.270;4.456;2024-01-15T02:38:15;3.60;99.90
9497;DHT22;4786;51.270;4.456;2024-01-15T02:40:42;3.50;99.90
9497;DHT22;4786;51.270;4.456;2024-01-15T02:43:08;3.70;99.90
9497;DHT22;4786;51.270;4.456;2024-01-15T02:45:34;3.50;99.90
9497;DHT22;4786;51.270;4.456;2024-01-15T02:48:00;3.50;99.90
9497;DHT22;4786;51.270;4.456;2024-01-15T02:50:26;3.50;99.90
9497;DHT22;4786;51.270;4.456;2024-01-15T02:52:52;3.50;99.90
9497;DHT22;4786;51.270;4.456;2024-01-15T02:55:18;3.80;99.90
9497;DHT22;4786;51.270;4.456;2024-01-15T02:57:45;3.60;99.90
9497;DHT22;4786;51.270;4.456;2024-01-15T03:00:11;3.60;99.90
9497;DHT22;4786;51.270;4.456;2024-01-15T03:02:38;3.60;99.90
9497;DHT22;4786;51.270;4.456;2024-01-15T03:05:09;3.60;99.90
9497;DHT22;4786;51.270;4.456;2024-01-15T03:07:35;3.60;99.90
9497;DHT22;4786;51.270;4.456;2024-01-15T03:10:01;3.60;99.90
9497;DHT22;4786;51.270;4.456;2024-01-15T03:12:27;3.60;99.90
9497;DHT22;4786;51.270;4.456;2024-01-15T03:14:53;3.60;99.90
9497;DHT22;4786;51.270;4.456;2024-01-15T03:17:19;3.60;99.90
9497;DHT22;4786;51.270;4.456;2024-01-15T03:19:45;3.60;99.90
9497;DHT22;4786;51.270;4.456;2024-01-15T03:22:11;3.60;99.90
9497;DHT22;4786;51.270;4.456;2024-01-15T03:24:37;3.60;99.90
9497;DHT22;4786;51.270;4.456;2024-01-15T03:27:03;3.60;99.90
9497;DHT22;4786;51.270;4.456;2024-01-15T03:29:28;3.60;99.90
9497;DHT22;4786;51.270;4.456;2024-01-15T03:31:54;3.60;99.90
9497;DHT22;4786;51.270;4.456;2024-01-15T03:34:20;3.70;99.90
9497;DHT22;4786;51.270;4.456;2024-01-15T03:36:46;3.70;99.90
9497;DHT22;4786;51.270;4.456;2024-01-15T03:39:12;3.70;99.90
9497;DHT22;4786;51.270;4.456;2024-01-15T03:41:38;3.90;99.90
9497;DHT22;4786;51.270;4.456;2024-01-15T03:44:03;3.70;99.90
9497;DHT22;4786;51.270;4.456;2024-01-15T03:46:29;3.70;99.90
9497;DHT22;4786;51.270;4.456;2024-01-15T03:48:55;3.70;99.90
9497;DHT22;4786;51.270;4.456;2024-01-15T03:51:21;3.70;99.90
9497;DHT22;4786;51.270;4.456;2024-01-15T03:53:47;3.70;99.90
9497;DHT22;4786;51.270;4.456;2024-01-15T03:56:13;3.70;99.90
9497;DHT22;4786;51.270;4.456;2024-01-15T03:58:39;3.70;99.90
9497;DHT22;4786;51.270;4.456;2024-01-15T04:01:12;3.60;99.90
9497;DHT22;4786;51.270;4.456;2024-01-15T04:03:38;3.60;99.90
9497;DHT22;4786;51.270;4.456;2024-01-15T04:06:04;3.70;99.90
9497;DHT22;4786;51.270;4.456;2024-01-15T04:08:30;3.80;99.90
9497;DHT22;4786;51.270;4.456;2024-01-15T04:10:56;3.80;99.90
9497;DHT22;4786;51.270;4.456;2024-01-15T04:13:22;3.70;99.90
9497;DHT22;4786;51.270;4.456;2024-01-15T04:15:48;3.70;99.90
9497;DHT22;4786;51.270;4.456;2024-01-15T04:18:15;3.70;99.90
9497;DHT22;4786;51.270;4.456;2024-01-15T04:20:41;3.70;99.90
9497;DHT22;4786;51.270;4.456;2024-01-15T04:23:07;3.70;99.90
9497;DHT22;4786;51.270;4.456;2024-01-15T04:25:32;3.70;99.90
9497;DHT22;4786;51.270;4.456;2024-01-15T04:27:58;3.80;99.90
9497;DHT22;4786;51.270;4.456;2024-01-15T04:30:24;3.70;99.90
9497;DHT22;4786;51.270;4.456;2024-01-15T04:32:50;3.70;99.90
9497;DHT22;4786;51.270;4.456;2024-01-15T04:35:16;3.80;99.90
9497;DHT22;4786;51.270;4.456;2024-01-15T04:37:42;3.70;99.90
9497;DHT22;4786;51.270;4.456;2024-01-15T04:40:09;3.80;99.90
9497;DHT22;4786;51.270;4.456;2024-01-15T04:42:35;3.80;99.90
9497;DHT22;4786;51.270;4.456;2024-01-15T04:45:00;3.70;99.90
9497;DHT22;4786;51.270;4.456;2024-01-15T04:47:27;3.70;99.90
9497;DHT22;4786;51.270;4.456;2024-01-15T04:49:53;3.70;99.90
9497;DHT22;4786;51.270;4.456;2024-01-15T04:52:18;3.80;99.90
9497;DHT22;4786;51.270;4.456;2024-01-15T04:54:44;3.80;99.90
9497;DHT22;4786;51.270;4.456;2024-01-15T04:57:11;3.80;99.90
9497;DHT22;4786;51.270;4.456;2024-01-15T04:59:37;3.80;99.90
9497;DHT22;4786;51.270;4.456;2024-01-15T05:02:03;3.80;99.90
9497;DHT22;4786;51.270;4.456;2024-01-15T05:04:29;3.80;99.90
9497;DHT22;4786;51.270;4.456;2024-01-15T05:06:55;3.70;99.90
9497;DHT22;4786;51.270;4.456;2024-01-15T05:09:21;3.70;99.90
9497;DHT22;4786;51.270;4.456;2024-01-15T05:11:47;3.90;99.90
9497;DHT22;4786;51.270;4.456;2024-01-15T05:14:13;3.80;99.90
9497;DHT22;4786;51.270;4.456;2024-01-15T05:16:40;3.80;99.90
9497;DHT22;4786;51.270;4.456;2024-01-15T05:19:07;3.60;99.90
9497;DHT22;4786;51.270;4.456;2024-01-15T05:21:34;3.60;99.90
9497;DHT22;4786;51.270;4.456;2024-01-15T05:23:59;3.70;99.90
9497;DHT22;4786;51.270;4.456;2024-01-15T05:26:25;3.70;99.90
9497;DHT22;4786;51.270;4.456;2024-01-15T05:28:51;3.80;99.90
9497;DHT22;4786;51.270;4.456;2024-01-15T05:31:17;3.80;99.90
9497;DHT22;4786;51.270;4.456;2024-01-15T05:33:44;3.80;99.90
9497;DHT22;4786;51.270;4.456;2024-01-15T05:36:10;3.80;99.90
9497;DHT22;4786;51.270;4.456;2024-01-15T05:38:36;3.70;99.90
9497;DHT22;4786;51.270;4.456;2024-01-15T05:41:02;3.60;99.90
9497;DHT22;4786;51.270;4.456;2024-01-15T05:43:28;3.60;99.90
9497;DHT22;4786;51.270;4.456;2024-01-15T05:45:54;3.60;99.90
9497;DHT22;4786;51.270;4.456;2024-01-15T05:48:20;3.60;99.90
9497;DHT22;4786;51.270;4.456;2024-01-15T05:50:46;3.50;99.90
9497;DHT22;4786;51.270;4.456;2024-01-15T05:53:12;3.60;99.90
9497;DHT22;4786;51.270;4.456;2024-01-15T05:55:38;3.50;99.90
9497;DHT22;4786;51.270;4.456;2024-01-15T05:58:04;3.50;99.90
9497;DHT22;4786;51.270;4.456;2024-01-15T06:00:30;3.50;99.90
9497;DHT22;4786;51.270;4.456;2024-01-15T06:02:58;3.70;99.90
9497;DHT22;4786;51.270;4.456;2024-01-15T06:05:24;3.60;99.90
9497;DHT22;4786;51.270;4.456;2024-01-15T06:07:50;3.50;99.90
9497;DHT22;4786;51.270;4.456;2024-01-15T06:10:16;3.50;99.90
9497;DHT22;4786;51.270;4.456;2024-01-15T06:12:43;3.50;99.90
9497;DHT22;4786;51.270;4.456;2024-01-15T06:15:10;3.50;99.90
9497;DHT22;4786;51.270;4.456;2024-01-15T06:17:36;3.60;99.90
9497;DHT22;4786;51.270;4.456;2024-01-15T06:20:03;3.60;99.90
9497;DHT22;4786;51.270;4.456;2024-01-15T06:22:28;3.50;99.90
9497;DHT22;4786;51.270;4.456;2024-01-15T06:24:54;3.50;99.90
9497;DHT22;4786;51.270;4.456;2024-01-15T06:27:21;3.70;99.90
9497;DHT22;4786;51.270;4.456;2024-01-15T06:29:47;3.60;99.90
9497;DHT22;4786;51.270;4.456;2024-01-15T06:32:13;3.60;99.90
9497;DHT22;4786;51.270;4.456;2024-01-15T06:34:39;3.60;99.90
9497;DHT22;4786;51.270;4.456;2024-01-15T06:37:05;3.60;99.90
9497;DHT22;4786;51.270;4.456;2024-01-15T06:39:31;3.50;99.90
9497;DHT22;4786;51.270;4.456;2024-01-15T06:41:57;3.40;99.90
9497;DHT22;4786;51.270;4.456;2024-01-15T06:44:23;3.50;99.90
9497;DHT22;4786;51.270;4.456;2024-01-15T06:46:48;3.20;99.90
9497;DHT22;4786;51.270;4.456;2024-01-15T06:49:14;3.30;99.90
9497;DHT22;4786;51.270;4.456;2024-01-15T06:51:40;3.20;99.90
9497;DHT22;4786;51.270;4.456;2024-01-15T06:54:07;3.10;99.90
9497;DHT22;4786;51.270;4.456;2024-01-15T06:56:33;3.00;99.90
9497;DHT22;4786;51.270;4.456;2024-01-15T06:58:58;2.90;99.90
9497;DHT22;4786;51.270;4.456;2024-01-15T07:01:24;2.90;99.90
9497;DHT22;4786;51.270;4.456;2024-01-15T07:03:50;2.90;99.90
9497;DHT22;4786;51.270;4.456;2024-01-15T07:06:16;3.00;99.90
9497;DHT22;4786;51.270;4.456;2024-01-15T07:08:42;2.80;99.90
9497;DHT22;4786;51.270;4.456;2024-01-15T07:11:08;2.70;99.90
9497;DHT22;4786;51.270;4.456;2024-01-15T07:13:36;2.70;99.90
9497;DHT22;4786;51.270;4.456;2024-01-15T07:16:02;2.80;99.90
9497;DHT22;4786;51.270;4.456;2024-01-15T07:18:28;2.50;99.90
9497;DHT22;4786;51.270;4.456;2024-01-15T07:20:55;2.60;99.90
9497;DHT22;4786;51.270;4.456;2024-01-15T07:23:20;2.60;99.90
9497;DHT22;4786;51.270;4.456;2024-01-15T07:25:46;2.60;99.90
9497;DHT22;4786;51.270;4.456;2024-01-15T07:28:11;2.60;99.90
9497;DHT22;4786;51.270;4.456;2024-01-15T07:30:37;2.80;99.90
9497;DHT22;4786;51.270;4.456;2024-01-15T07:33:04;2.40;99.90
9497;DHT22;4786;51.270;4.456;2024-01-15T07:35:30;2.50;99.90
9497;DHT22;4786;51.270;4.456;2024-01-15T07:37:56;2.70;99.90
9497;DHT22;4786;51.270;4.456;2024-01-15T07:40:22;2.60;99.90
9497;DHT22;4786;51.270;4.456;2024-01-15T07:42:48;2.50;99.90
9497;DHT22;4786;51.270;4.456;2024-01-15T07:45:13;2.60;99.90
9497;DHT22;4786;51.270;4.456;2024-01-15T07:47:39;2.60;99.90
9497;DHT22;4786;51.270;4.456;2024-01-15T07:50:05;2.70;99.90
9497;DHT22;4786;51.270;4.456;2024-01-15T07:52:31;2.70;99.90
9497;DHT22;4786;51.270;4.456;2024-01-15T07:54:57;2.70;99.90
9497;DHT22;4786;51.270;4.456;2024-01-15T07:57:25;2.80;99.90
9497;DHT22;4786;51.270;4.456;2024-01-15T07:59:51;2.90;99.90
9497;DHT22;4786;51.270;4.456;2024-01-15T08:02:17;3.00;99.90
9497;DHT22;4786;51.270;4.456;2024-01-15T08:04:43;3.00;99.90
9497;DHT22;4786;51.270;4.456;2024-01-15T08:07:09;2.90;99.90
9497;DHT22;4786;51.270;4.456;2024-01-15T08:09:36;3.00;99.90
9497;DHT22;4786;51.270;4.456;2024-01-15T08:12:02;3.00;99.90
9497;DHT22;4786;51.270;4.456;2024-01-15T08:14:28;3.00;99.90
9497;DHT22;4786;51.270;4.456;2024-01-15T08:16:54;3.10;99.90
9497;DHT22;4786;51.270;4.456;2024-01-15T08:19:20;3.20;99.90
9497;DHT22;4786;51.270;4.456;2024-01-15T08:21:45;3.20;99.90
9497;DHT22;4786;51.270;4.456;2024-01-15T08:24:11;3.20;99.90
9497;DHT22;4786;51.270;4.456;2024-01-15T08:26:37;3.20;99.90
9497;DHT22;4786;51.270;4.456;2024-01-15T08:29:03;3.20;99.90
9497;DHT22;4786;51.270;4.456;2024-01-15T08:31:29;3.20;99.90
9497;DHT22;4786;51.270;4.456;2024-01-15T08:33:55;3.20;99.90
9497;DHT22;4786;51.270;4.456;2024-01-15T08:36:21;3.10;99.90
9497;DHT22;4786;51.270;4.456;2024-01-15T08:38:47;3.20;99.90
9497;DHT22;4786;51.270;4.456;2024-01-15T08:41:13;3.30;99.90
9497;DHT22;4786;51.270;4.456;2024-01-15T08:43:39;3.30;99.90
9497;DHT22;4786;51.270;4.456;2024-01-15T08:46:05;3.30;99.90
9497;DHT22;4786;51.270;4.456;2024-01-15T08:48:31;3.30;99.90
9497;DHT22;4786;51.270;4.456;2024-01-15T08:50:57;3.30;99.90
9497;DHT22;4786;51.270;4.456;2024-01-15T08:53:23;3.30;99.90
9497;DHT22;4786;51.270;4.456;2024-01-15T08:55:49;3.40;99.90
9497;DHT22;4786;51.270;4.456;2024-01-15T08:58:15;3.40;99.90
9497;DHT22;4786;51.270;4.456;2024-01-15T09:00:42;3.40;99.90
9497;DHT22;4786;51.270;4.456;2024-01-15T09:03:07;3.30;99.90
9497;DHT22;4786;51.270;4.456;2024-01-15T09:05:36;3.40;99.90
9497;DHT22;4786;51.270;4.456;2024-01-15T09:08:02;3.40;99.90
9497;DHT22;4786;51.270;4.456;2024-01-15T09:10:28;3.30;99.90
9497;DHT22;4786;51.270;4.456;2024-01-15T09:12:53;3.30;99.90
9497;DHT22;4786;51.270;4.456;2024-01-15T09:15:19;3.20;99.90
9497;DHT22;4786;51.270;4.456;2024-01-15T09:17:45;3.10;99.90
9497;DHT22;4786;51.270;4.456;2024-01-15T09:20:11;3.20;99.90
9497;DHT22;4786;51.270;4.456;2024-01-15T09:22:40;3.20;99.90
9497;DHT22;4786;51.270;4.456;2024-01-15T09:25:10;3.30;99.90
9497;DHT22;4786;51.270;4.456;2024-01-15T09:27:37;3.00;99.90
9497;DHT22;4786;51.270;4.456;2024-01-15T09:30:04;3.30;99.90
9497;DHT22;4786;51.270;4.456;2024-01-15T09:32:30;3.30;99.90
9497;DHT22;4786;51.270;4.456;2024-01-15T09:34:56;3.20;99.90
9497;DHT22;4786;51.270;4.456;2024-01-15T09:37:22;3.30;99.90
9497;DHT22;4786;51.270;4.456;2024-01-15T09:39:49;3.50;99.90
9497;DHT22;4786;51.270;4.456;2024-01-15T09:42:15;3.40;99.90
9497;DHT22;4786;51.270;4.456;2024-01-15T09:44:41;3.50;99.90
9497;DHT22;4786;51.270;4.456;2024-01-15T09:47:07;3.60;99.90
9497;DHT22;4786;51.270;4.456;2024-01-15T09:49:35;3.60;99.90
9497;DHT22;4786;51.270;4.456;2024-01-15T09:52:01;3.70;99.90
9497;DHT22;4786;51.270;4.456;2024-01-15T09:54:27;3.60;99.90
9497;DHT22;4786;51.270;4.456;2024-01-15T09:56:54;3.80;99.90
9497;DHT22;4786;51.270;4.456;2024-01-15T09:59:22;3.90;99.90
9497;DHT22;4786;51.270;4.456;2024-01-15T10:01:50;4.00;99.90
9497;DHT22;4786;51.270;4.456;2024-01-15T10:04:16;4.20;99.90
9497;DHT22;4786;51.270;4.456;2024-01-15T10:06:44;4.40;99.90
9497;DHT22;4786;51.270;4.456;2024-01-15T10:09:30;4.50;99.90
9497;DHT22;4786;51.270;4.456;2024-01-15T10:11:56;4.60;99.90
9497;DHT22;4786;51.270;4.456;2024-01-15T10:14:21;4.60;99.90
9497;DHT22;4786;51.270;4.456;2024-01-15T10:16:48;4.60;99.90
9497;DHT22;4786;51.270;4.456;2024-01-15T10:19:13;4.50;99.90
9497;DHT22;4786;51.270;4.456;2024-01-15T10:21:39;4.50;99.90
9497;DHT22;4786;51.270;4.456;2024-01-15T10:24:05;4.60;99.90
9497;DHT22;4786;51.270;4.456;2024-01-15T10:26:32;4.30;99.90
9497;DHT22;4786;51.270;4.456;2024-01-15T10:29:01;4.10;99.90
9497;DHT22;4786;51.270;4.456;2024-01-15T10:31:27;3.80;99.90
9497;DHT22;4786;51.270;4.456;2024-01-15T10:33:54;3.70;99.90
9497;DHT22;4786;51.270;4.456;2024-01-15T10:36:19;3.60;99.90
9497;DHT22;4786;51.270;4.456;2024-01-15T10:38:46;3.50;99.90
9497;DHT22;4786;51.270;4.456;2024-01-15T10:41:11;3.40;99.90
9497;DHT22;4786;51.270;4.456;2024-01-15T10:43:38;3.40;99.90
9497;DHT22;4786;51.270;4.456;2024-01-15T10:46:06;3.40;99.90
9497;DHT22;4786;51.270;4.456;2024-01-15T10:48:33;3.50;99.90
9497;DHT22;4786;51.270;4.456;2024-01-15T10:51:01;3.60;99.90
9497;DHT22;4786;51.270;4.456;2024-01-15T10:53:29;3.60;99.90
9497;DHT22;4786;51.270;4.456;2024-01-15T10:55:57;3.70;99.90
9497;DHT22;4786;51.270;4.456;2024-01-15T10:58:24;3.60;99.90
9497;DHT22;4786;51.270;4.456;2024-01-15T11:00:53;3.50;99.90
9497;DHT22;4786;51.270;4.456;2024-01-15T11:03:19;3.40;99.90
9497;DHT22;4786;51.270;4.456;2024-01-15T11:05:45;3.50;99.90
9497;DHT22;4786;51.270;4.456;2024-01-15T11:08:11;3.20;99.90
9497;DHT22;4786;51.270;4.456;2024-01-15T11:10:42;3.20;99.90
9497;DHT22;4786;51.270;4.456;2024-01-15T11:15:57;3.30;99.90
9497;DHT22;4786;51.270;4.456;2024-01-15T11:18:23;3.40;99.90
9497;DHT22;4786;51.270;4.456;2024-01-15T11:23:46;3.40;99.90
9497;DHT22;4786;51.270;4.456;2024-01-15T11:26:34;3.30;99.90
9497;DHT22;4786;51.270;4.456;2024-01-15T11:29:06;3.10;99.90
9497;DHT22;4786;51.270;4.456;2024-01-15T11:34:08;3.20;99.90
9497;DHT22;4786;51.270;4.456;2024-01-15T11:37:01;3.20;99.90
9497;DHT22;4786;51.270;4.456;2024-01-15T11:41:58;3.30;99.90
9497;DHT22;4786;51.270;4.456;2024-01-15T11:44:25;3.10;99.90
9497;DHT22;4786;51.270;4.456;2024-01-15T11:47:02;3.00;99.90
9497;DHT22;4786;51.270;4.456;2024-01-15T11:52:22;2.90;99.90
9497;DHT22;4786;51.270;4.456;2024-01-15T11:55:19;2.90;99.90
9497;DHT22;4786;51.270;4.456;2024-01-15T11:57:50;3.00;99.90
9497;DHT22;4786;51.270;4.456;2024-01-15T12:00:17;3.20;99.90
9497;DHT22;4786;51.270;4.456;2024-01-15T12:02:45;3.40;99.90
9497;DHT22;4786;51.270;4.456;2024-01-15T12:05:14;3.60;99.90
9497;DHT22;4786;51.270;4.456;2024-01-15T12:07:41;3.50;99.90
9497;DHT22;4786;51.270;4.456;2024-01-15T12:10:11;3.50;99.90
9497;DHT22;4786;51.270;4.456;2024-01-15T12:15:11;3.20;99.90
9497;DHT22;4786;51.270;4.456;2024-01-15T12:17:37;3.10;99.90
9497;DHT22;4786;51.270;4.456;2024-01-15T12:20:04;3.00;99.90
9497;DHT22;4786;51.270;4.456;2024-01-15T12:22:31;2.90;99.90
9497;DHT22;4786;51.270;4.456;2024-01-15T12:24:57;3.10;99.90
9497;DHT22;4786;51.270;4.456;2024-01-15T12:27:24;2.90;99.90
9497;DHT22;4786;51.270;4.456;2024-01-15T12:29:50;2.90;99.90
9497;DHT22;4786;51.270;4.456;2024-01-15T12:32:15;2.90;99.90
9497;DHT22;4786;51.270;4.456;2024-01-15T12:34:41;2.90;99.90
9497;DHT22;4786;51.270;4.456;2024-01-15T12:37:08;2.80;99.90
9497;DHT22;4786;51.270;4.456;2024-01-15T12:39:34;3.00;99.90
9497;DHT22;4786;51.270;4.456;2024-01-15T12:42:01;2.70;99.90
9497;DHT22;4786;51.270;4.456;2024-01-15T12:44:28;2.70;99.90
9497;DHT22;4786;51.270;4.456;2024-01-15T12:46:54;2.60;99.90
9497;DHT22;4786;51.270;4.456;2024-01-15T12:49:21;2.60;99.90
9497;DHT22;4786;51.270;4.456;2024-01-15T12:51:57;2.60;99.90
9497;DHT22;4786;51.270;4.456;2024-01-15T12:54:24;2.80;99.90
9497;DHT22;4786;51.270;4.456;2024-01-15T12:56:51;2.70;99.90
9497;DHT22;4786;51.270;4.456;2024-01-15T12:59:17;2.70;99.90
9497;DHT22;4786;51.270;4.456;2024-01-15T13:01:43;2.70;99.90
9497;DHT22;4786;51.270;4.456;2024-01-15T13:04:10;2.90;99.90
9497;DHT22;4786;51.270;4.456;2024-01-15T13:06:36;2.90;99.90
9497;DHT22;4786;51.270;4.456;2024-01-15T13:09:03;2.90;99.90
9497;DHT22;4786;51.270;4.456;2024-01-15T13:11:31;2.90;99.90
9497;DHT22;4786;51.270;4.456;2024-01-15T13:13:58;2.90;99.90
9497;DHT22;4786;51.270;4.456;2024-01-15T13:16:23;3.00;99.90
9497;DHT22;4786;51.270;4.456;2024-01-15T13:18:52;3.00;99.90
9497;DHT22;4786;51.270;4.456;2024-01-15T13:21:18;3.00;99.90
9497;DHT22;4786;51.270;4.456;2024-01-15T13:23:43;3.10;99.90
9497;DHT22;4786;51.270;4.456;2024-01-15T13:26:09;3.10;99.90
9497;DHT22;4786;51.270;4.456;2024-01-15T13:28:35;3.10;99.90
9497;DHT22;4786;51.270;4.456;2024-01-15T13:31:01;3.30;99.90
9497;DHT22;4786;51.270;4.456;2024-01-15T13:33:27;3.30;99.90
9497;DHT22;4786;51.270;4.456;2024-01-15T13:35:54;3.50;99.90
9497;DHT22;4786;51.270;4.456;2024-01-15T13:38:20;3.60;99.90
9497;DHT22;4786;51.270;4.456;2024-01-15T13:40:45;3.50;99.90
9497;DHT22;4786;51.270;4.456;2024-01-15T13:43:12;3.60;99.90
9497;DHT22;4786;51.270;4.456;2024-01-15T13:45:40;3.50;99.90
9497;DHT22;4786;51.270;4.456;2024-01-15T13:48:06;3.50;99.90
9497;DHT22;4786;51.270;4.456;2024-01-15T13:50:34;3.50;99.90
9497;DHT22;4786;51.270;4.456;2024-01-15T13:53:01;3.60;99.90
9497;DHT22;4786;51.270;4.456;2024-01-15T13:55:27;3.50;99.90
9497;DHT22;4786;51.270;4.456;2024-01-15T13:57:54;3.50;99.90
9497;DHT22;4786;51.270;4.456;2024-01-15T14:00:20;3.40;99.90
9497;DHT22;4786;51.270;4.456;2024-01-15T14:02:47;3.20;99.90
9497;DHT22;4786;51.270;4.456;2024-01-15T14:05:13;3.30;99.90
9497;DHT22;4786;51.270;4.456;2024-01-15T14:07:39;3.10;99.90
9497;DHT22;4786;51.270;4.456;2024-01-15T14:10:06;3.00;99.90
9497;DHT22;4786;51.270;4.456;2024-01-15T14:12:33;3.00;99.90
9497;DHT22;4786;51.270;4.456;2024-01-15T14:15:01;2.90;99.90
9497;DHT22;4786;51.270;4.456;2024-01-15T14:17:27;2.90;99.90
9497;DHT22;4786;51.270;4.456;2024-01-15T14:19:54;2.90;99.90
9497;DHT22;4786;51.270;4.456;2024-01-15T14:22:20;2.90;99.90
9497;DHT22;4786;51.270;4.456;2024-01-15T14:24:45;2.90;99.90
9497;DHT22;4786;51.270;4.456;2024-01-15T14:27:12;2.90;99.90
9497;DHT22;4786;51.270;4.456;2024-01-15T14:29:38;2.90;99.90
9497;DHT22;4786;51.270;4.456;2024-01-15T14:32:04;2.90;99.90
9497;DHT22;4786;51.270;4.456;2024-01-15T14:34:30;2.90;99.90
9497;DHT22;4786;51.270;4.456;2024-01-15T14:36:56;3.00;99.90
9497;DHT22;4786;51.270;4.456;2024-01-15T14:39:22;2.90;99.90
9497;DHT22;4786;51.270;4.456;2024-01-15T14:41:48;2.90;99.90
9497;DHT22;4786;51.270;4.456;2024-01-15T14:44:15;2.90;99.90
9497;DHT22;4786;51.270;4.456;2024-01-15T14:46:41;2.90;99.90
9497;DHT22;4786;51.270;4.456;2024-01-15T14:49:06;3.00;99.90
9497;DHT22;4786;51.270;4.456;2024-01-15T14:51:32;3.00;99.90
9497;DHT22;4786;51.270;4.456;2024-01-15T14:53:58;3.00;99.90
9497;DHT22;4786;51.270;4.456;2024-01-15T14:56:24;3.10;99.90
9497;DHT22;4786;51.270;4.456;2024-01-15T14:58:50;3.00;99.90
9497;DHT22;4786;51.270;4.456;2024-01-15T15:01:16;3.00;99.90
9497;DHT22;4786;51.270;4.456;2024-01-15T15:03:42;2.90;99.90
9497;DHT22;4786;51.270;4.456;2024-01-15T15:06:09;3.00;99.90
9497;DHT22;4786;51.270;4.456;2024-01-15T15:08:35;2.90;99.90
9497;DHT22;4786;51.270;4.456;2024-01-15T15:11:03;3.00;99.90
9497;DHT22;4786;51.270;4.456;2024-01-15T15:13:29;3.00;99.90
9497;DHT22;4786;51.270;4.456;2024-01-15T15:15:55;3.00;99.90
9497;DHT22;4786;51.270;4.456;2024-01-15T15:18:21;3.00;99.90
9497;DHT22;4786;51.270;4.456;2024-01-15T15:20:47;3.00;99.90
9497;DHT22;4786;51.270;4.456;2024-01-15T15:23:13;3.20;99.90
9497;DHT22;4786;51.270;4.456;2024-01-15T15:25:39;3.00;99.90
9497;DHT22;4786;51.270;4.456;2024-01-15T15:28:05;3.00;99.90
9497;DHT22;4786;51.270;4.456;2024-01-15T15:30:31;2.90;99.90
9497;DHT22;4786;51.270;4.456;2024-01-15T15:32:57;2.90;99.90
9497;DHT22;4786;51.270;4.456;2024-01-15T15:35:23;2.90;99.90
9497;DHT22;4786;51.270;4.456;2024-01-15T15:37:48;3.00;99.90
9497;DHT22;4786;51.270;4.456;2024-01-15T15:40:14;2.90;99.90
9497;DHT22;4786;51.270;4.456;2024-01-15T15:42:40;2.90;99.90
9497;DHT22;4786;51.270;4.456;2024-01-15T15:45:06;3.00;99.90
9497;DHT22;4786;51.270;4.456;2024-01-15T15:47:32;2.80;99.90
9497;DHT22;4786;51.270;4.456;2024-01-15T15:49:58;2.80;99.90
9497;DHT22;4786;51.270;4.456;2024-01-15T15:52:24;2.80;99.90
9497;DHT22;4786;51.270;4.456;2024-01-15T15:54:50;2.80;99.90
9497;DHT22;4786;51.270;4.456;2024-01-15T15:57:16;2.80;99.90
9497;DHT22;4786;51.270;4.456;2024-01-15T15:59:42;2.80;99.90
9497;DHT22;4786;51.270;4.456;2024-01-15T16:02:09;2.70;99.90
9497;DHT22;4786;51.270;4.456;2024-01-15T16:04:35;2.70;99.90
9497;DHT22;4786;51.270;4.456;2024-01-15T16:07:01;2.70;99.90
9497;DHT22;4786;51.270;4.456;2024-01-15T16:09:27;2.60;99.90
9497;DHT22;4786;51.270;4.456;2024-01-15T16:11:53;2.60;99.90
9497;DHT22;4786;51.270;4.456;2024-01-15T16:14:18;2.60;99.90
9497;DHT22;4786;51.270;4.456;2024-01-15T16:16:45;2.60;99.90
9497;DHT22;4786;51.270;4.456;2024-01-15T16:19:11;2.50;99.90
9497;DHT22;4786;51.270;4.456;2024-01-15T16:21:38;2.40;99.90
9497;DHT22;4786;51.270;4.456;2024-01-15T16:24:03;2.40;99.90
9497;DHT22;4786;51.270;4.456;2024-01-15T16:26:29;2.40;99.90
9497;DHT22;4786;51.270;4.456;2024-01-15T16:28:55;2.40;99.90